createdAt,value
2023-03-23T19:48:30.852Z,0.0000
2023-03-23T19:48:35.174Z,0.0000
2023-03-23T19:48:39.963Z,0.0000
2023-03-23T19:48:43.871Z,0.0000
2023-03-23T19:48:48.648Z,0.0000
2023-03-23T19:48:52.840Z,0.0000
2023-03-23T19:49:31.671Z,0.0000
2023-03-23T19:49:35.999Z,0.0000
2023-03-23T19:49:40.383Z,0.0000
2023-03-23T19:49:44.679Z,0.0000
2023-03-23T19:49:49.043Z,0.0000
2023-03-23T19:49:53.681Z,0.0000
2023-03-23T19:50:32.481Z,0.0000
2023-03-23T19:50:36.881Z,0.0000
2023-03-23T19:50:41.201Z,0.0000
2023-03-23T19:50:46.733Z,0.0000
2023-03-23T19:50:52.607Z,0.0000
2023-03-23T19:50:56.427Z,0.0000
2023-03-23T19:51:35.488Z,0.0000
2023-03-23T19:51:39.894Z,0.0000
2023-03-23T19:51:44.201Z,0.0000
2023-03-23T19:51:49.052Z,0.0000
2023-03-23T19:52:08.945Z,0.0000
2023-03-23T19:53:10.174Z,6.5500
2023-03-23T19:53:14.138Z,5.9000
2023-03-23T19:53:19.324Z,5.5500
2023-03-23T19:53:23.115Z,6.5500
2023-03-23T19:53:27.134Z,5.9500
2023-03-23T19:53:31.492Z,5.8500
2023-03-23T19:54:10.629Z,5.2500
2023-03-23T19:54:15.258Z,5.9500
2023-03-23T19:54:19.279Z,6.1500
2023-03-23T19:54:23.619Z,5.7500
2023-03-23T19:54:27.996Z,5.5000
2023-03-23T19:54:32.303Z,5.7000
2023-03-23T19:55:11.446Z,4.8000
2023-03-23T19:55:15.776Z,7.2500
2023-03-23T19:55:20.167Z,7.2000
2023-03-23T19:55:24.488Z,6.8500
2023-03-23T19:55:28.824Z,6.6000
2023-03-23T19:55:33.157Z,6.9500
2023-03-23T19:56:12.296Z,4.9000
2023-03-23T19:56:16.677Z,4.3500
2023-03-23T19:56:20.992Z,4.9500
2023-03-23T19:56:25.677Z,5.6000
2023-03-23T19:56:30.023Z,6.0500
2023-03-23T19:56:34.075Z,6.4500
2023-03-23T19:57:13.246Z,4.1000
2023-03-23T19:57:17.542Z,4.4000
2023-03-23T19:57:22.095Z,4.6000
2023-03-23T19:57:26.844Z,4.3500
2023-03-23T19:57:30.585Z,4.4000
2023-03-23T19:57:35.171Z,4.0500
2023-03-23T19:58:14.110Z,2.8500
2023-03-23T19:58:18.326Z,3.5500
2023-03-23T19:58:22.665Z,4.2500
2023-03-23T19:58:27.000Z,4.7000
2023-03-23T19:58:31.513Z,4.9000
2023-03-23T19:58:35.692Z,4.7000
2023-03-23T19:59:15.033Z,4.9500
2023-03-23T19:59:19.132Z,5.3500
2023-03-23T19:59:23.750Z,5.8500
2023-03-23T19:59:27.830Z,5.8500
2023-03-23T19:59:32.144Z,7.2000
2023-03-23T19:59:36.499Z,8.4000
2023-03-23T20:00:15.586Z,4.5500
2023-03-23T20:00:19.876Z,5.2000
2023-03-23T20:00:25.016Z,5.7000
2023-03-23T20:00:28.666Z,5.1500
2023-03-23T20:00:34.343Z,5.2500
2023-03-23T20:00:39.415Z,5.4500
2023-03-23T20:01:18.491Z,7.1000
2023-03-23T20:01:22.858Z,7.2500
2023-03-23T20:01:27.171Z,7.0000
2023-03-23T20:01:31.524Z,6.3500
2023-03-23T20:01:35.850Z,7.3000
2023-03-23T20:01:40.232Z,7.0500
2023-03-23T20:02:19.574Z,7.1000
2023-03-23T20:02:23.729Z,7.0000
2023-03-23T20:02:27.941Z,6.7500
2023-03-23T20:02:32.290Z,6.6500
2023-03-23T20:02:37.273Z,6.7000
2023-03-23T20:02:41.026Z,6.4500
2023-03-23T20:03:20.004Z,6.1500
2023-03-23T20:03:24.398Z,5.5500
2023-03-23T20:03:28.672Z,5.5500
2023-03-23T20:03:33.003Z,5.0000
2023-03-23T20:03:37.452Z,4.3500
2023-03-23T20:03:41.760Z,4.3500
2023-03-23T20:04:22.961Z,4.0000
2023-03-23T20:04:27.350Z,4.3500
2023-03-23T20:04:31.645Z,4.2000
2023-03-23T20:04:36.063Z,4.7000
2023-03-23T20:04:40.436Z,4.7000
2023-03-23T20:04:45.479Z,4.5000
2023-03-23T20:05:23.775Z,3.9500
2023-03-23T20:05:28.041Z,3.9500
2023-03-23T20:05:32.368Z,4.0500
2023-03-23T20:05:36.913Z,3.8500
2023-03-23T20:05:41.077Z,3.6500
2023-03-23T20:05:45.765Z,3.3000
2023-03-23T20:06:24.770Z,5.2000
2023-03-23T20:06:29.444Z,5.0500
2023-03-23T20:06:33.150Z,5.1000
2023-03-23T20:06:37.675Z,5.7500
2023-03-23T20:06:42.032Z,6.1500
2023-03-23T20:06:46.331Z,6.5000
2023-03-23T20:07:26.908Z,3.7500
2023-03-23T20:07:30.334Z,3.9500
2023-03-23T20:07:33.947Z,3.9000
2023-03-23T20:07:40.731Z,5.6500
2023-03-23T20:07:50.298Z,5.4000
2023-03-23T20:07:54.584Z,6.8000
2023-03-23T22:11:34.384Z,7.8000
2023-03-23T22:11:37.745Z,7.1000
2023-03-23T22:11:41.956Z,7.2500
2023-03-23T22:11:46.573Z,7.4500
2023-03-23T22:11:50.655Z,7.1500
2023-03-23T22:11:55.072Z,8.0000
2023-03-23T22:20:36.391Z,8.8000
2023-03-23T22:20:40.824Z,9.1500
2023-03-23T22:20:45.188Z,9.7500
2023-03-23T22:20:49.394Z,10.6500
2023-03-23T22:20:53.760Z,11.3500
2023-03-23T22:20:58.096Z,11.8500
2023-03-23T22:21:37.278Z,8.6000
2023-03-23T22:21:41.671Z,7.7000
2023-03-23T22:21:45.973Z,7.4500
2023-03-23T22:21:50.292Z,6.7500
2023-03-23T22:21:54.648Z,5.4000
2023-03-23T22:21:58.994Z,6.1000
2023-03-23T22:23:01.812Z,7.6000
2023-03-23T22:23:05.330Z,8.4000
2023-03-23T22:23:09.693Z,9.9500
2023-03-23T22:23:14.002Z,10.9500
2023-03-23T22:23:18.378Z,11.7500
2023-03-23T22:23:22.697Z,10.4500
2023-03-23T22:24:01.844Z,6.8000
2023-03-23T22:24:06.191Z,7.0000
2023-03-23T22:24:10.593Z,5.5500
2023-03-23T22:24:14.890Z,5.0500
2023-03-23T22:24:19.334Z,5.3000
2023-03-23T22:24:23.709Z,5.4000
2023-03-23T22:25:02.723Z,8.7000
2023-03-23T22:25:07.181Z,10.8000
2023-03-23T22:25:11.423Z,12.0000
2023-03-23T22:25:15.787Z,10.5500
2023-03-23T22:25:20.132Z,10.4500
2023-03-23T22:25:24.465Z,11.6000
2023-03-23T22:26:03.566Z,7.0500
2023-03-23T22:26:07.920Z,7.2000
2023-03-23T22:26:12.259Z,7.4500
2023-03-23T22:26:16.730Z,8.2500
2023-03-23T22:26:20.942Z,7.9000
2023-03-23T22:26:25.291Z,7.6500
2023-03-23T22:27:04.397Z,13.3500
2023-03-23T22:27:08.740Z,11.2000
2023-03-23T22:27:13.101Z,11.6000
2023-03-23T22:27:17.443Z,10.8500
2023-03-23T22:27:21.782Z,11.6000
2023-03-23T22:27:26.110Z,12.4500
2023-03-23T22:28:05.218Z,19.8500
2023-03-23T22:28:09.566Z,18.5500
2023-03-23T22:28:13.899Z,17.5000
2023-03-23T22:28:18.266Z,16.8000
2023-03-23T22:28:22.616Z,13.6500
2023-03-23T22:28:26.939Z,15.8000
2023-03-23T22:29:06.053Z,9.6500
2023-03-23T22:29:10.394Z,11.2000
2023-03-23T22:29:14.934Z,11.5500
2023-03-23T22:29:19.114Z,11.2000
2023-03-23T22:29:23.432Z,11.4000
2023-03-23T22:29:27.770Z,11.3000
2023-03-23T22:30:06.894Z,24.8000
2023-03-23T22:30:11.226Z,27.1000
2023-03-23T22:30:15.563Z,31.5000
2023-03-23T22:30:19.908Z,35.6500
2023-03-23T22:30:24.265Z,40.5000
2023-03-23T22:30:28.660Z,44.9500
2023-03-23T22:31:07.732Z,15.4000
2023-03-23T22:31:12.121Z,16.7000
2023-03-23T22:31:16.411Z,16.6000
2023-03-23T22:31:20.760Z,17.9000
2023-03-23T22:31:25.095Z,16.5000
2023-03-23T22:31:29.572Z,16.5000
2023-03-23T22:32:08.515Z,29.8500
2023-03-23T22:32:12.862Z,27.2500
2023-03-23T22:32:17.206Z,24.6500
2023-03-23T22:32:21.710Z,23.6500
2023-03-23T22:32:25.922Z,23.6500
2023-03-23T22:32:30.306Z,29.6500
2023-03-23T22:33:09.358Z,25.4500
2023-03-23T22:33:13.683Z,22.2000
2023-03-23T22:33:18.018Z,21.5000
2023-03-23T22:33:22.369Z,21.8000
2023-03-23T22:33:26.712Z,23.0000
2023-03-23T22:33:31.080Z,20.8500
2023-03-23T22:34:10.156Z,35.6000
2023-03-23T22:34:14.510Z,35.6500
2023-03-23T22:34:18.845Z,33.7000
2023-03-23T22:34:23.193Z,32.8000
2023-03-23T22:34:27.539Z,32.9000
2023-03-23T22:34:31.943Z,31.2000
2023-03-23T22:35:10.986Z,20.5500
2023-03-23T22:35:15.331Z,21.2500
2023-03-23T22:35:19.683Z,20.3000
2023-03-23T22:35:24.034Z,20.9500
2023-03-23T22:35:28.366Z,20.0000
2023-03-23T22:35:32.759Z,19.1500
2023-03-23T22:36:11.910Z,19.2500
2023-03-23T22:36:16.232Z,17.1500
2023-03-23T22:36:20.540Z,15.9000
2023-03-23T22:36:24.899Z,15.2500
2023-03-23T22:36:29.199Z,13.3500
2023-03-23T22:36:33.558Z,16.6000
2023-03-23T22:37:12.672Z,21.6500
2023-03-23T22:37:17.010Z,21.4500
2023-03-23T22:37:21.346Z,22.1500
2023-03-23T22:37:25.688Z,21.0500
2023-03-23T22:37:30.044Z,20.8000
2023-03-23T22:37:34.385Z,20.3000
2023-03-23T22:38:13.480Z,12.3000
2023-03-23T22:38:17.814Z,12.3500
2023-03-23T22:38:22.176Z,11.7000
2023-03-23T22:38:26.501Z,11.5000
2023-03-23T22:38:30.840Z,12.6000
2023-03-23T22:38:35.262Z,12.9000
2023-03-23T22:39:14.266Z,17.4500
2023-03-23T22:39:18.608Z,17.6000
2023-03-23T22:39:22.956Z,16.4500
2023-03-23T22:39:27.300Z,15.2000
2023-03-23T22:39:31.630Z,13.5000
2023-03-23T22:39:35.976Z,15.2000
2023-03-23T22:40:15.046Z,17.6000
2023-03-23T22:40:19.401Z,15.5500
2023-03-23T22:40:23.731Z,15.3000
2023-03-23T22:40:28.080Z,15.1500
2023-03-23T22:40:32.416Z,17.4000
2023-03-23T22:40:36.773Z,18.0000
2023-03-23T22:41:15.836Z,25.0000
2023-03-23T22:41:20.392Z,22.7500
2023-03-23T22:41:24.513Z,23.6500
2023-03-23T22:41:28.858Z,23.7000
2023-03-23T22:41:33.186Z,20.0000
2023-03-23T22:41:37.552Z,20.4500
2023-03-23T22:42:16.609Z,13.4000
2023-03-23T22:42:21.026Z,13.4500
2023-03-23T22:42:25.290Z,13.7500
2023-03-23T22:42:29.632Z,15.5000
2023-03-23T22:42:33.990Z,17.2500
2023-03-23T22:42:38.329Z,19.2500
2023-03-23T22:43:17.374Z,13.5000
2023-03-23T22:43:21.827Z,12.9500
2023-03-23T22:43:26.052Z,16.7000
2023-03-23T22:43:30.430Z,17.9000
2023-03-23T22:43:34.761Z,21.3500
2023-03-23T22:43:39.070Z,25.3000
2023-03-23T22:44:18.191Z,27.1000
2023-03-23T22:44:22.668Z,34.9000
2023-03-23T22:44:26.844Z,38.2000
2023-03-23T22:44:31.227Z,40.7000
2023-03-23T22:44:35.526Z,42.0000
2023-03-23T22:44:39.979Z,46.6500
2023-03-23T22:45:19.117Z,30.6000
2023-03-23T22:45:23.344Z,27.2000
2023-03-23T22:45:27.652Z,26.1000
2023-03-23T22:45:31.992Z,26.8500
2023-03-23T22:45:36.380Z,28.5000
2023-03-23T22:45:40.675Z,29.1500
2023-03-23T22:46:19.743Z,27.8000
2023-03-23T22:46:24.146Z,26.1000
2023-03-23T22:46:28.437Z,24.8500
2023-03-23T22:46:32.777Z,24.5000
2023-03-23T22:46:37.123Z,24.6000
2023-03-23T22:46:41.504Z,27.1000
2023-03-23T22:47:20.538Z,27.9500
2023-03-23T22:47:24.950Z,27.4500
2023-03-23T22:47:29.325Z,26.5000
2023-03-23T22:47:33.607Z,28.0000
2023-03-23T22:47:37.931Z,30.6500
2023-03-23T22:47:42.282Z,30.4500
2023-03-23T22:48:21.323Z,30.0500
2023-03-23T22:48:25.660Z,26.9500
2023-03-23T22:48:30.045Z,29.3000
2023-03-23T22:48:34.360Z,30.4500
2023-03-23T22:48:38.701Z,31.5000
2023-03-23T22:48:43.186Z,34.3000
2023-03-23T22:49:22.113Z,29.7500
2023-03-23T22:49:26.456Z,31.2000
2023-03-23T22:49:30.821Z,33.4500
2023-03-23T22:49:35.165Z,35.9500
2023-03-23T22:49:39.486Z,33.0000
2023-03-23T22:49:43.928Z,33.9000
2023-03-23T22:50:22.907Z,32.6000
2023-03-23T22:50:27.279Z,31.0500
2023-03-23T22:50:31.621Z,31.0000
2023-03-23T22:50:35.969Z,32.5000
2023-03-23T22:50:40.301Z,31.9500
2023-03-23T22:50:44.775Z,30.6500
2023-03-23T22:51:23.733Z,26.5000
2023-03-23T22:51:28.095Z,31.2000
2023-03-23T22:51:32.453Z,39.6500
2023-03-23T22:51:36.838Z,42.3000
2023-03-23T22:51:41.270Z,41.6500
2023-03-23T22:51:45.441Z,41.3500
2023-03-23T22:52:24.549Z,32.8000
2023-03-23T22:52:28.940Z,31.4000
2023-03-23T22:52:33.235Z,29.4000
2023-03-23T22:52:37.606Z,25.5500
2023-03-23T22:52:41.928Z,26.2500
2023-03-23T22:52:46.263Z,25.4000
2023-03-23T22:53:25.379Z,33.5500
2023-03-23T22:53:29.700Z,32.7000
2023-03-23T22:53:34.050Z,33.9000
2023-03-23T22:53:38.436Z,36.9500
2023-03-23T22:53:42.769Z,37.1000
2023-03-23T22:53:47.072Z,36.1000
2023-03-23T22:54:26.194Z,23.8000
2023-03-23T22:54:30.538Z,24.3500
2023-03-23T22:54:34.859Z,25.7500
2023-03-23T22:54:39.215Z,22.3500
2023-03-23T22:54:43.635Z,22.3500
2023-03-23T22:54:47.881Z,26.1000
2023-03-23T22:55:27.082Z,20.7500
2023-03-23T22:55:31.322Z,21.9500
2023-03-23T22:55:35.675Z,23.8000
2023-03-23T22:55:40.007Z,26.6500
2023-03-23T22:55:44.360Z,24.5000
2023-03-23T22:55:48.706Z,27.1500
2023-03-23T22:56:27.823Z,29.2000
2023-03-23T22:56:32.163Z,24.9500
2023-03-23T22:56:36.507Z,24.3500
2023-03-23T22:56:40.835Z,24.0500
2023-03-23T22:56:45.177Z,23.5500
2023-03-23T22:56:49.498Z,27.6000
2023-03-23T22:57:28.573Z,26.0000
2023-03-23T22:57:32.932Z,26.1000
2023-03-23T22:57:37.275Z,25.0500
2023-03-23T22:57:41.595Z,23.2500
2023-03-23T22:57:45.955Z,23.8500
2023-03-23T22:57:50.282Z,24.6500
2023-03-23T22:58:29.375Z,28.9500
2023-03-23T22:58:33.761Z,25.9000
2023-03-23T22:58:38.061Z,25.5500
2023-03-23T22:58:42.399Z,27.4500
2023-03-23T22:58:46.751Z,25.2500
2023-03-23T22:58:51.087Z,20.9500
2023-03-23T22:59:30.203Z,25.1000
2023-03-23T22:59:34.544Z,24.9000
2023-03-23T22:59:38.899Z,22.8000
2023-03-23T22:59:43.323Z,22.0000
2023-03-23T22:59:47.603Z,24.4000
2023-03-23T22:59:51.941Z,24.2500
2023-03-23T23:00:31.068Z,31.1000
2023-03-23T23:00:35.406Z,32.3500
2023-03-23T23:00:39.831Z,31.4000
2023-03-23T23:00:44.295Z,29.8500
2023-03-23T23:00:48.652Z,24.5000
2023-03-23T23:00:52.792Z,27.5500
2023-03-23T23:01:31.942Z,27.0500
2023-03-23T23:01:36.324Z,26.5000
2023-03-23T23:01:40.558Z,26.1000
2023-03-23T23:01:44.905Z,25.2500
2023-03-23T23:01:49.268Z,25.1500
2023-03-23T23:01:53.605Z,25.9500
2023-03-23T23:02:32.744Z,29.5000
2023-03-23T23:02:37.064Z,29.8500
2023-03-23T23:02:41.446Z,30.6500
2023-03-23T23:02:45.825Z,32.3500
2023-03-23T23:02:50.110Z,30.4500
2023-03-23T23:02:54.493Z,29.2000
2023-03-23T23:03:33.545Z,19.3000
2023-03-23T23:03:37.915Z,20.2000
2023-03-23T23:03:42.295Z,20.4000
2023-03-23T23:03:46.673Z,23.5500
2023-03-23T23:03:50.985Z,26.3000
2023-03-23T23:03:55.285Z,27.7500
2023-03-23T23:04:34.473Z,21.2500
2023-03-23T23:04:38.761Z,20.7000
2023-03-23T23:04:43.093Z,22.2000
2023-03-23T23:04:47.456Z,22.9500
2023-03-23T23:04:51.826Z,20.2000
2023-03-23T23:04:56.134Z,20.0000
2023-03-23T23:05:35.245Z,20.3000
2023-03-23T23:05:39.610Z,20.5000
2023-03-23T23:05:43.938Z,24.4500
2023-03-23T23:05:48.290Z,25.5000
2023-03-23T23:05:52.631Z,26.2000
2023-03-23T23:05:56.987Z,27.3500
2023-03-23T23:06:36.100Z,20.7000
2023-03-23T23:06:40.453Z,18.9500
2023-03-23T23:06:44.793Z,18.1000
2023-03-23T23:06:49.168Z,18.6000
2023-03-23T23:07:00.413Z,18.6000
2023-03-23T23:07:12.486Z,19.7000
2023-03-23T23:07:39.158Z,17.7000
2023-03-23T23:07:43.478Z,18.9500
2023-03-23T23:07:47.896Z,18.4000
2023-03-23T23:07:52.195Z,20.5000
2023-03-23T23:07:56.583Z,21.7000
2023-03-23T23:08:05.221Z,22.3000
2023-03-23T23:08:39.995Z,17.7000
2023-03-23T23:08:44.327Z,19.3000
2023-03-23T23:08:48.691Z,19.4000
2023-03-23T23:08:53.047Z,20.2500
2023-03-23T23:08:57.376Z,19.0000
2023-03-23T23:09:06.073Z,25.8500
2023-03-23T23:09:40.836Z,21.4500
2023-03-23T23:09:45.204Z,23.6000
2023-03-23T23:09:49.544Z,24.0000
2023-03-23T23:09:53.893Z,24.7000
2023-03-23T23:09:58.229Z,24.2000
2023-03-23T23:10:06.920Z,25.0000
2023-03-23T23:10:41.736Z,21.5000
2023-03-23T23:10:46.377Z,19.3500
2023-03-23T23:10:50.386Z,19.5000
2023-03-23T23:10:54.746Z,20.2000
2023-03-23T23:10:59.098Z,22.1000
2023-03-23T23:11:07.785Z,22.7500
2023-03-23T23:11:42.577Z,22.2000
2023-03-23T23:11:46.976Z,22.4500
2023-03-23T23:11:51.276Z,21.8000
2023-03-23T23:11:55.615Z,21.1500
2023-03-23T23:11:59.960Z,19.7000
2023-03-23T23:12:08.725Z,23.7500
2023-03-23T23:12:43.436Z,18.2500
2023-03-23T23:12:48.034Z,17.5500
2023-03-23T23:12:52.136Z,17.3500
2023-03-23T23:12:56.475Z,16.7500
2023-03-23T23:13:00.832Z,15.9500
2023-03-23T23:13:09.522Z,13.1000
2023-03-23T23:13:44.401Z,20.8500
2023-03-23T23:13:48.660Z,20.3500
2023-03-23T23:13:53.033Z,21.3500
2023-03-23T23:13:57.399Z,20.5000
2023-03-23T23:14:01.746Z,20.5000
2023-03-23T23:14:10.390Z,20.9000
2023-03-23T23:14:45.177Z,18.6500
2023-03-23T23:14:49.526Z,19.1000
2023-03-23T23:14:53.885Z,17.0000
2023-03-23T23:14:58.271Z,17.3000
2023-03-23T23:15:02.593Z,18.4500
2023-03-23T23:15:11.452Z,22.5500
2023-03-23T23:15:46.056Z,23.0500
2023-03-23T23:15:50.399Z,22.4000
2023-03-23T23:15:54.755Z,20.1000
2023-03-23T23:15:59.107Z,20.4000
2023-03-23T23:16:03.541Z,19.6500
2023-03-23T23:16:12.182Z,19.4000
2023-03-23T23:16:46.976Z,12.9500
2023-03-23T23:16:51.273Z,15.4000
2023-03-23T23:16:55.687Z,15.2500
2023-03-23T23:17:00.035Z,17.6000
2023-03-23T23:17:04.405Z,18.9500
2023-03-23T23:17:13.027Z,21.7500
2023-03-23T23:17:47.837Z,21.5000
2023-03-23T23:17:52.174Z,22.0000
2023-03-23T23:17:56.562Z,21.0000
2023-03-23T23:18:00.865Z,19.4500
2023-03-23T23:18:05.197Z,18.7000
2023-03-23T23:18:14.011Z,20.3500
2023-03-23T23:18:48.662Z,17.3500
2023-03-23T23:18:53.102Z,19.6000
2023-03-23T23:18:57.498Z,20.6500
2023-03-23T23:19:01.693Z,19.7500
2023-03-23T23:19:06.057Z,16.0000
2023-03-23T23:19:14.755Z,17.2500
2023-03-23T23:19:49.708Z,15.0500
2023-03-23T23:19:53.875Z,14.6500
2023-03-23T23:19:58.255Z,13.6500
2023-03-23T23:20:02.575Z,14.1000
2023-03-23T23:20:06.913Z,13.7000
2023-03-23T23:20:15.630Z,17.6000
2023-03-23T23:20:50.382Z,15.8000
2023-03-23T23:20:54.760Z,17.6500
2023-03-23T23:20:59.087Z,16.3000
2023-03-23T23:21:03.438Z,16.6500
2023-03-23T23:21:07.762Z,18.6000
2023-03-23T23:21:16.461Z,19.2500
2023-03-23T23:21:51.240Z,16.5500
2023-03-23T23:21:55.592Z,16.8000
2023-03-23T23:22:09.241Z,17.0500
2023-03-23T23:22:18.343Z,19.4000
2023-03-23T23:22:18.843Z,19.1000
2023-03-23T23:22:22.482Z,17.5500
2023-03-23T23:22:52.179Z,26.6000
2023-03-23T23:22:56.444Z,21.9000
2023-03-23T23:23:00.801Z,18.1500
2023-03-23T23:23:09.506Z,17.5500
2023-03-23T23:23:18.186Z,17.8000
2023-03-23T23:23:22.536Z,16.7000
2023-03-23T23:23:52.972Z,18.7000
2023-03-23T23:23:57.355Z,19.8500
2023-03-23T23:24:01.691Z,20.7000
2023-03-23T23:24:10.362Z,24.9000
2023-03-23T23:24:19.053Z,21.5000
2023-03-23T23:24:23.415Z,21.9000
2023-03-23T23:24:53.834Z,19.1500
2023-03-23T23:24:58.191Z,17.3500
2023-03-23T23:25:02.559Z,18.6000
2023-03-23T23:25:11.253Z,18.4500
2023-03-23T23:25:19.923Z,18.5500
2023-03-23T23:25:24.292Z,19.7500
2023-03-23T23:25:54.725Z,14.8500
2023-03-23T23:25:59.057Z,13.8000
2023-03-23T23:26:03.401Z,12.0500
2023-03-23T23:26:12.095Z,12.7000
2023-03-23T23:26:20.798Z,13.3500
2023-03-23T23:26:25.156Z,17.1000
2023-03-23T23:26:55.572Z,18.2500
2023-03-23T23:26:59.910Z,18.5500
2023-03-23T23:27:04.258Z,17.0500
2023-03-23T23:27:12.967Z,21.0000
2023-03-23T23:27:21.660Z,20.2000
2023-03-23T23:27:25.993Z,19.1000
2023-03-23T23:27:56.422Z,22.8500
2023-03-23T23:28:00.767Z,22.9500
2023-03-23T23:28:05.106Z,22.2500
2023-03-23T23:28:13.811Z,24.8500
2023-03-23T23:28:22.520Z,17.0000
2023-03-23T23:28:26.850Z,15.8500
2023-03-23T23:28:57.269Z,12.3000
2023-03-23T23:29:01.641Z,11.9000
2023-03-23T23:29:05.966Z,18.0000
2023-03-23T23:29:14.674Z,18.6000
2023-03-23T23:29:23.400Z,19.4500
2023-03-23T23:29:27.709Z,18.9000
2023-03-23T23:29:58.140Z,14.2000
2023-03-23T23:30:02.477Z,14.0500
2023-03-23T23:30:06.831Z,16.0000
2023-03-23T23:30:15.512Z,14.1500
2023-03-23T23:30:24.293Z,17.3500
2023-03-23T23:30:28.587Z,18.0500
2023-03-23T23:30:59.056Z,16.4000
2023-03-23T23:31:03.428Z,16.9000
2023-03-23T23:31:07.791Z,17.6500
2023-03-23T23:31:16.466Z,18.3500
2023-03-23T23:31:25.130Z,14.5000
2023-03-23T23:31:29.544Z,11.5000
2023-03-23T23:31:59.886Z,18.0000
2023-03-23T23:32:04.232Z,17.8500
2023-03-23T23:32:08.617Z,20.2500
2023-03-23T23:32:17.262Z,21.3500
2023-03-23T23:32:26.005Z,18.0500
2023-03-23T23:32:30.409Z,18.9500
2023-03-23T23:33:00.839Z,18.8000
2023-03-23T23:33:05.149Z,16.6000
2023-03-23T23:33:09.512Z,16.5500
2023-03-23T23:33:18.149Z,14.7500
2023-03-23T23:33:26.866Z,11.2500
2023-03-23T23:33:31.190Z,12.7500
2023-03-23T23:34:01.643Z,14.1500
2023-03-23T23:34:06.005Z,14.3000
2023-03-23T23:34:10.408Z,15.8500
2023-03-23T23:34:19.018Z,15.9000
2023-03-23T23:34:27.712Z,17.2500
2023-03-23T23:34:32.061Z,17.0000
2023-03-23T23:35:02.500Z,15.1500
2023-03-23T23:35:06.853Z,15.9000
2023-03-23T23:35:11.201Z,15.8000
2023-03-23T23:35:19.998Z,15.3000
2023-03-23T23:35:28.667Z,12.6000
2023-03-23T23:35:33.016Z,12.2000
2023-03-23T23:36:03.420Z,15.4500
2023-03-23T23:36:07.742Z,14.9000
2023-03-23T23:36:12.079Z,14.7000
2023-03-23T23:36:20.811Z,12.0000
2023-03-23T23:36:29.529Z,16.4000
2023-03-23T23:36:33.823Z,15.4500
2023-03-23T23:37:04.270Z,14.6000
2023-03-23T23:37:08.622Z,15.1500
2023-03-23T23:37:12.953Z,14.7500
2023-03-23T23:37:21.660Z,14.9500
2023-03-23T23:37:30.350Z,18.5000
2023-03-23T23:37:34.709Z,18.5500
2023-03-23T23:38:05.185Z,17.1500
2023-03-23T23:38:09.494Z,15.6000
2023-03-23T23:38:13.886Z,15.9000
2023-03-23T23:38:22.518Z,16.5500
2023-03-23T23:38:31.240Z,17.7000
2023-03-23T23:38:35.615Z,17.3000
2023-03-23T23:39:05.999Z,16.9000
2023-03-23T23:39:10.347Z,16.2500
2023-03-23T23:39:14.702Z,15.1000
2023-03-23T23:39:23.395Z,13.5000
2023-03-23T23:39:32.099Z,12.9500
2023-03-23T23:39:36.445Z,11.8000
2023-03-23T23:40:06.886Z,19.1500
2023-03-23T23:40:11.256Z,18.7000
2023-03-23T23:40:15.618Z,18.1000
2023-03-23T23:40:24.270Z,14.2500
2023-03-23T23:40:33.035Z,11.5500
2023-03-23T23:40:37.319Z,13.1000
2023-03-23T23:41:07.761Z,15.5000
2023-03-23T23:41:12.093Z,15.8000
2023-03-23T23:41:16.462Z,15.8000
2023-03-23T23:41:25.160Z,13.3000
2023-03-23T23:41:33.820Z,14.0500
2023-03-23T23:41:38.175Z,13.3000
2023-03-23T23:42:08.622Z,10.3000
2023-03-23T23:42:12.987Z,10.6500
2023-03-23T23:42:17.361Z,11.5000
2023-03-23T23:42:26.666Z,12.5000
2023-03-23T23:42:34.697Z,13.9000
2023-03-23T23:42:39.052Z,15.0500
2023-03-23T23:43:09.490Z,13.9500
2023-03-23T23:43:13.868Z,13.7500
2023-03-23T23:43:18.189Z,11.0500
2023-03-23T23:43:26.902Z,11.4000
2023-03-23T23:43:35.586Z,10.1000
2023-03-23T23:43:39.938Z,10.6000
2023-03-23T23:44:10.380Z,15.0000
2023-03-23T23:44:14.727Z,13.4500
2023-03-23T23:44:19.084Z,12.3500
2023-03-23T23:44:27.811Z,9.9500
2023-03-23T23:44:36.468Z,10.2000
2023-03-23T23:44:40.813Z,11.1500
2023-03-23T23:45:11.258Z,9.3500
2023-03-23T23:45:15.606Z,11.1000
2023-03-23T23:45:19.973Z,12.1000
2023-03-23T23:45:28.652Z,14.0000
2023-03-23T23:45:37.418Z,14.3000
2023-03-23T23:45:41.799Z,14.9500
2023-03-23T23:46:12.233Z,10.5000
2023-03-23T23:46:16.550Z,11.2000
2023-03-23T23:46:20.861Z,11.1000
2023-03-23T23:46:29.632Z,14.8500
2023-03-23T23:46:38.305Z,15.9500
2023-03-23T23:46:42.613Z,17.9000
2023-03-23T23:47:13.021Z,19.0500
2023-03-23T23:47:17.362Z,21.0000
2023-03-23T23:47:21.820Z,20.6000
2023-03-23T23:47:30.497Z,17.8000
2023-03-23T23:47:39.250Z,16.5500
2023-03-23T23:47:43.487Z,17.1500
2023-03-23T23:48:13.956Z,7.9500
2023-03-23T23:48:18.250Z,9.6500
2023-03-23T23:48:22.597Z,9.4000
2023-03-23T23:48:31.333Z,9.2000
2023-03-23T23:48:39.994Z,10.8500
2023-03-23T23:48:44.403Z,13.2000
2023-03-23T23:49:14.790Z,14.6000
2023-03-23T23:49:19.130Z,13.5500
2023-03-23T23:49:23.506Z,13.9500
2023-03-23T23:49:32.190Z,11.2000
2023-03-23T23:49:40.911Z,8.4000
2023-03-23T23:49:45.253Z,9.3500
2023-03-23T23:50:15.677Z,10.4000
2023-03-23T23:50:20.041Z,10.1500
2023-03-23T23:50:24.376Z,11.2500
2023-03-23T23:50:33.072Z,13.2000
2023-03-23T23:50:41.772Z,14.6000
2023-03-23T23:50:46.433Z,15.6000
2023-03-23T23:51:16.686Z,16.0000
2023-03-23T23:51:20.979Z,17.0000
2023-03-23T23:51:25.286Z,16.2500
2023-03-23T23:51:33.930Z,10.8500
2023-03-23T23:51:42.639Z,10.5000
2023-03-23T23:51:46.965Z,9.8000
2023-03-23T23:52:17.417Z,10.7500
2023-03-23T23:52:21.769Z,11.2500
2023-03-23T23:52:26.136Z,10.9000
2023-03-23T23:52:34.848Z,12.7000
2023-03-23T23:52:43.509Z,12.8000
2023-03-23T23:52:47.866Z,12.7500
2023-03-23T23:53:18.396Z,13.8000
2023-03-23T23:53:22.669Z,14.3000
2023-03-23T23:53:27.039Z,12.5500
2023-03-23T23:53:35.712Z,10.6000
2023-03-23T23:53:44.428Z,10.5500
2023-03-23T23:53:48.736Z,9.6000
2023-03-23T23:54:19.245Z,20.7500
2023-03-23T23:54:23.532Z,21.0000
2023-03-23T23:54:27.881Z,17.8500
2023-03-23T23:54:36.578Z,12.7000
2023-03-23T23:54:45.314Z,10.5500
2023-03-23T23:54:49.653Z,12.1500
2023-03-23T23:55:20.114Z,11.9000
2023-03-23T23:55:24.406Z,11.7500
2023-03-23T23:55:28.760Z,11.2000
2023-03-23T23:55:37.479Z,11.9500
2023-03-23T23:55:46.201Z,13.1500
2023-03-23T23:55:50.503Z,12.5000
2023-03-23T23:56:20.940Z,12.0500
2023-03-23T23:56:25.319Z,11.7000
2023-03-23T23:56:29.694Z,11.5000
2023-03-23T23:56:38.394Z,10.0000
2023-03-23T23:56:47.096Z,8.5000
2023-03-23T23:56:51.430Z,9.1500
2023-03-23T23:57:21.803Z,11.4500
2023-03-23T23:57:26.159Z,11.3000
2023-03-23T23:57:30.510Z,10.4000
2023-03-23T23:57:39.239Z,9.3000
2023-03-23T23:57:47.998Z,11.3000
2023-03-23T23:57:52.251Z,10.3500
2023-03-23T23:58:22.690Z,8.0000
2023-03-23T23:58:27.052Z,8.9500
2023-03-23T23:58:31.380Z,9.3000
2023-03-23T23:58:40.121Z,9.7000
2023-03-23T23:58:48.808Z,11.0500
2023-03-23T23:58:53.132Z,12.5500
2023-03-23T23:59:23.567Z,16.1000
2023-03-23T23:59:27.929Z,16.3500
2023-03-23T23:59:32.286Z,13.0000
2023-03-23T23:59:40.971Z,9.0500
2023-03-23T23:59:49.671Z,13.0500
2023-03-23T23:59:54.029Z,12.1500
